createdAt,value
2023-01-31T00:00:47.643Z,2.42
2023-01-31T00:02:11.063Z,2.28
2023-01-31T00:03:35.163Z,2.20
2023-01-31T00:04:58.991Z,2.08
2023-01-31T00:06:24.437Z,2.63
2023-01-31T00:07:47.486Z,2.05
2023-01-31T00:09:12.261Z,2.83
2023-01-31T00:10:34.934Z,2.38
2023-01-31T00:11:58.409Z,2.92
2023-01-31T00:13:20.864Z,2.45
2023-01-31T00:14:44.258Z,2.00
2023-01-31T00:16:08.142Z,1.40
2023-01-31T00:17:31.809Z,2.55
2023-01-31T00:18:55.254Z,1.67
2023-01-31T00:20:20.306Z,2.00
2023-01-31T00:21:43.719Z,1.73
2023-01-31T00:23:06.160Z,2.03
2023-01-31T00:24:29.697Z,1.50
2023-01-31T00:25:52.165Z,2.40
2023-01-31T00:27:15.541Z,1.98
2023-01-31T00:28:38.512Z,2.50
2023-01-31T00:30:01.901Z,2.20
2023-01-31T00:31:26.879Z,2.67
2023-01-31T00:32:50.393Z,1.65
2023-01-31T00:34:12.838Z,2.13
2023-01-31T00:35:40.750Z,1.92
2023-01-31T00:37:04.154Z,1.92
2023-01-31T00:38:26.529Z,2.35
2023-01-31T00:39:50.014Z,1.48
2023-01-31T00:41:13.606Z,1.80
2023-01-31T00:42:36.965Z,1.55
2023-01-31T00:44:00.739Z,2.20
2023-01-31T00:45:23.227Z,1.42
2023-01-31T00:46:46.697Z,2.17
2023-01-31T00:48:09.193Z,1.60
2023-01-31T00:49:32.788Z,1.60
2023-01-31T00:50:56.696Z,2.00
2023-01-31T00:52:20.207Z,2.60
2023-01-31T00:53:42.631Z,1.60
2023-01-31T00:55:07.001Z,1.77
2023-01-31T00:56:31.074Z,1.95
2023-01-31T00:57:53.523Z,2.28
2023-01-31T00:59:16.983Z,2.08
2023-01-31T01:00:40.454Z,2.05
2023-01-31T01:02:04.045Z,2.33
2023-01-31T01:03:26.484Z,2.67
2023-01-31T01:04:49.882Z,1.77
2023-01-31T01:06:15.079Z,1.98
2023-01-31T01:07:38.800Z,1.88
2023-01-31T01:09:02.505Z,1.63
2023-01-31T01:10:24.926Z,2.05
2023-01-31T01:11:48.338Z,1.40
2023-01-31T01:13:10.782Z,1.65
2023-01-31T01:14:34.720Z,2.00
2023-01-31T01:15:57.177Z,2.10
2023-01-31T01:17:20.695Z,2.53
2023-01-31T01:18:46.391Z,1.92
2023-01-31T01:20:11.289Z,1.52
2023-01-31T01:21:39.193Z,1.38
2023-01-31T01:23:02.731Z,3.15
2023-01-31T01:24:27.249Z,1.60
2023-01-31T01:25:50.729Z,1.63
2023-01-31T01:27:14.793Z,1.30
2023-01-31T01:28:37.227Z,1.88
2023-01-31T01:30:02.017Z,1.67
2023-01-31T01:31:30.612Z,2.00
2023-01-31T01:32:56.736Z,1.90
2023-01-31T01:34:19.955Z,1.70
2023-01-31T01:35:43.423Z,1.27
2023-01-31T01:37:11.736Z,1.65
2023-01-31T01:38:36.464Z,1.67
2023-01-31T01:39:59.935Z,1.77
2023-01-31T01:41:24.161Z,2.20
2023-01-31T01:42:47.574Z,2.20
2023-01-31T01:44:50.074Z,1.70
2023-01-31T01:46:18.659Z,1.08
2023-01-31T01:47:46.701Z,1.52
2023-01-31T01:49:16.846Z,1.42
2023-01-31T01:50:42.698Z,1.70
2023-01-31T01:52:09.527Z,1.58
2023-01-31T01:53:33.391Z,1.48
2023-01-31T01:54:58.829Z,2.00
2023-01-31T01:56:24.987Z,1.65
2023-01-31T01:57:50.861Z,1.55
2023-01-31T01:59:17.443Z,1.65
2023-01-31T02:00:40.149Z,1.17
2023-01-31T02:02:03.898Z,2.30
2023-01-31T02:03:27.351Z,1.70
2023-01-31T02:04:52.411Z,1.70
2023-01-31T02:06:15.790Z,2.22
2023-01-31T02:07:41.863Z,1.80
2023-01-31T02:09:06.159Z,1.73
2023-01-31T02:10:32.186Z,1.60
2023-01-31T02:11:55.782Z,2.08
2023-01-31T02:13:19.919Z,1.95
2023-01-31T02:14:43.590Z,1.75
2023-01-31T02:16:07.487Z,1.10
2023-01-31T02:17:30.895Z,1.55
2023-01-31T02:18:54.603Z,1.75
2023-01-31T02:20:41.444Z,2.15
2023-01-31T02:22:16.407Z,1.35
2023-01-31T02:24:02.771Z,1.65
2023-01-31T02:26:04.844Z,1.67
2023-01-31T02:27:53.630Z,1.33
2023-01-31T02:29:35.776Z,1.40
2023-01-31T02:31:48.557Z,1.48
2023-01-31T02:33:21.296Z,1.90
2023-01-31T02:34:48.191Z,1.45
2023-01-31T02:36:19.518Z,1.42
2023-01-31T02:37:48.993Z,2.90
2023-01-31T02:39:21.113Z,2.10
2023-01-31T02:40:49.985Z,1.45
2023-01-31T02:42:17.272Z,1.40
2023-01-31T02:44:00.947Z,1.77
2023-01-31T02:45:30.569Z,2.05
2023-01-31T02:46:57.423Z,1.88
2023-01-31T02:48:30.352Z,1.13
2023-01-31T02:49:56.413Z,1.35
2023-01-31T02:51:23.088Z,1.77
2023-01-31T02:52:49.235Z,1.92
2023-01-31T02:54:15.258Z,1.92
2023-01-31T02:56:01.995Z,1.63
2023-01-31T02:57:24.549Z,1.13
2023-01-31T02:58:54.475Z,2.28
2023-01-31T03:00:17.457Z,2.30
2023-01-31T03:01:43.185Z,2.00
2023-01-31T03:03:07.067Z,1.77
2023-01-31T03:04:34.098Z,1.30
2023-01-31T03:06:35.771Z,1.50
2023-01-31T03:08:00.967Z,1.48
2023-01-31T03:09:36.598Z,1.20
2023-01-31T03:11:03.388Z,1.30
2023-01-31T03:12:36.458Z,1.10
2023-01-31T03:14:07.218Z,1.95
2023-01-31T03:16:05.629Z,1.25
2023-01-31T03:17:36.391Z,0.98
2023-01-31T03:19:05.557Z,1.98
2023-01-31T03:20:33.618Z,0.98
2023-01-31T03:21:59.871Z,1.40
2023-01-31T03:23:26.915Z,1.77
2023-01-31T03:24:52.329Z,1.30
2023-01-31T03:26:16.644Z,1.55
2023-01-31T03:27:42.508Z,1.48
2023-01-31T03:29:07.725Z,1.65
2023-01-31T03:30:36.446Z,1.10
2023-01-31T03:32:02.243Z,1.75
2023-01-31T03:33:26.914Z,1.50
2023-01-31T03:34:51.151Z,1.23
2023-01-31T03:36:25.880Z,2.30
2023-01-31T03:37:54.029Z,1.20
2023-01-31T03:39:24.647Z,1.40
2023-01-31T03:40:51.706Z,1.52
2023-01-31T03:42:20.466Z,1.63
2023-01-31T03:43:50.414Z,1.10
2023-01-31T03:45:17.033Z,1.42
2023-01-31T03:46:43.288Z,1.75
2023-01-31T03:48:14.342Z,1.40
2023-01-31T03:49:39.589Z,1.55
2023-01-31T03:51:05.878Z,1.50
2023-01-31T03:52:35.221Z,2.40
2023-01-31T03:54:01.912Z,1.58
2023-01-31T03:55:28.405Z,1.75
2023-01-31T03:56:56.236Z,2.15
2023-01-31T03:58:21.297Z,0.93
2023-01-31T03:59:47.360Z,2.13
2023-01-31T04:01:12.169Z,1.45
2023-01-31T04:02:37.209Z,0.90
2023-01-31T04:04:04.025Z,1.90
2023-01-31T04:05:30.568Z,1.55
2023-01-31T04:06:54.033Z,1.48
2023-01-31T04:08:19.112Z,1.55
2023-01-31T04:09:42.826Z,1.52
2023-01-31T04:11:07.503Z,1.35
2023-01-31T04:12:30.015Z,1.42
2023-01-31T04:13:53.769Z,1.38
2023-01-31T04:15:17.297Z,1.40
2023-01-31T04:16:40.826Z,1.13
2023-01-31T04:18:04.244Z,2.03
2023-01-31T04:19:29.992Z,1.55
2023-01-31T04:20:53.391Z,1.65
2023-01-31T04:22:16.768Z,1.55
2023-01-31T04:23:40.521Z,1.83
2023-01-31T04:25:04.779Z,1.60
2023-01-31T04:26:28.253Z,1.10
2023-01-31T04:27:51.958Z,1.80
2023-01-31T04:29:15.422Z,1.67
2023-01-31T04:30:39.068Z,1.52
2023-01-31T04:32:02.563Z,1.63
2023-01-31T04:33:25.526Z,1.77
2023-01-31T04:34:48.963Z,1.38
2023-01-31T04:36:12.660Z,1.75
2023-01-31T04:37:36.684Z,1.27
2023-01-31T04:39:01.854Z,1.20
2023-01-31T04:40:25.270Z,1.27
2023-01-31T04:41:50.171Z,1.20
2023-01-31T04:43:13.595Z,1.33
2023-01-31T04:44:37.002Z,1.60
2023-01-31T04:45:59.436Z,2.08
2023-01-31T04:47:22.945Z,1.77
2023-01-31T04:48:46.437Z,1.67
2023-01-31T04:50:10.970Z,1.80
2023-01-31T04:51:33.427Z,1.75
2023-01-31T04:52:57.063Z,1.27
2023-01-31T04:54:22.283Z,1.30
2023-01-31T04:55:45.691Z,1.58
2023-01-31T04:57:08.088Z,0.82
2023-01-31T04:58:31.764Z,1.63
2023-01-31T04:59:54.217Z,1.25
2023-01-31T05:01:17.627Z,1.50
2023-01-31T05:02:40.238Z,1.63
2023-01-31T05:04:03.891Z,1.58
2023-01-31T05:05:27.310Z,1.80
2023-01-31T05:06:50.788Z,1.35
2023-01-31T05:08:14.198Z,1.67
2023-01-31T05:09:39.006Z,1.50
2023-01-31T05:11:04.248Z,1.00
2023-01-31T05:12:28.431Z,1.55
2023-01-31T05:13:51.877Z,1.85
2023-01-31T05:15:15.844Z,1.88
2023-01-31T05:16:39.256Z,1.45
2023-01-31T05:18:04.505Z,1.75
2023-01-31T05:19:28.175Z,1.45
2023-01-31T05:20:52.138Z,1.40
2023-01-31T05:22:15.928Z,1.77
2023-01-31T05:23:38.867Z,1.60
2023-01-31T05:25:03.813Z,1.52
2023-01-31T05:26:28.106Z,1.40
2023-01-31T05:27:50.552Z,1.30
2023-01-31T05:29:14.011Z,1.23
2023-01-31T05:30:37.911Z,1.65
2023-01-31T05:32:03.758Z,1.35
2023-01-31T05:33:29.285Z,2.00
2023-01-31T05:34:53.424Z,2.35
2023-01-31T05:36:16.835Z,1.25
2023-01-31T05:37:42.474Z,1.17
2023-01-31T05:39:05.103Z,1.73
2023-01-31T05:40:29.856Z,1.05
2023-01-31T05:41:53.791Z,1.98
2023-01-31T05:43:17.232Z,1.20
2023-01-31T05:44:40.651Z,2.10
2023-01-31T05:46:04.228Z,1.40
2023-01-31T05:47:26.760Z,1.65
2023-01-31T05:48:50.109Z,1.55
2023-01-31T05:50:12.728Z,1.67
2023-01-31T05:51:36.195Z,1.30
2023-01-31T05:52:59.706Z,1.20
2023-01-31T05:54:23.187Z,1.65
2023-01-31T05:55:49.897Z,1.80
2023-01-31T05:57:14.374Z,1.70
2023-01-31T05:58:37.735Z,1.77
2023-01-31T06:00:01.205Z,1.77
2023-01-31T06:01:27.507Z,2.05
2023-01-31T06:02:51.000Z,1.55
2023-01-31T06:04:14.630Z,2.22
2023-01-31T06:05:40.283Z,1.98
2023-01-31T06:07:03.774Z,2.55
2023-01-31T06:08:27.185Z,2.40
2023-01-31T06:09:50.620Z,1.85
2023-01-31T06:11:16.093Z,1.75
2023-01-31T06:12:38.491Z,1.70
2023-01-31T06:14:01.902Z,1.50
2023-01-31T06:15:25.356Z,1.80
2023-01-31T06:16:48.935Z,2.28
2023-01-31T06:18:13.209Z,2.13
2023-01-31T06:19:36.611Z,1.75
2023-01-31T06:21:00.191Z,1.73
2023-01-31T06:22:23.711Z,1.65
2023-01-31T06:23:47.971Z,2.55
2023-01-31T06:25:11.857Z,2.30
2023-01-31T06:26:36.617Z,1.88
2023-01-31T06:28:00.000Z,2.00
2023-01-31T06:29:23.404Z,1.92
2023-01-31T06:30:47.162Z,2.00
2023-01-31T06:32:10.697Z,1.75
2023-01-31T06:33:44.664Z,1.60
2023-01-31T06:35:11.047Z,1.80
2023-01-31T06:36:34.993Z,1.50
2023-01-31T06:37:58.414Z,2.40
2023-01-31T06:39:21.933Z,1.65
2023-01-31T06:40:45.350Z,2.15
2023-01-31T06:42:10.172Z,2.17
2023-01-31T06:43:33.586Z,1.48
2023-01-31T06:44:57.388Z,1.67
2023-01-31T06:46:20.938Z,1.98
2023-01-31T06:47:46.614Z,1.27
2023-01-31T06:49:10.020Z,1.70
2023-01-31T06:50:33.504Z,1.85
2023-01-31T06:51:56.962Z,1.08
2023-01-31T06:53:20.409Z,2.33
2023-01-31T06:54:43.822Z,1.88
2023-01-31T06:56:08.059Z,2.33
2023-01-31T06:57:32.857Z,1.73
2023-01-31T06:58:56.216Z,1.60
2023-01-31T07:00:20.712Z,1.92
2023-01-31T07:01:44.213Z,1.77
2023-01-31T07:03:07.621Z,1.40
2023-01-31T07:04:31.403Z,1.33
2023-01-31T07:05:54.907Z,1.88
2023-01-31T07:07:18.367Z,1.17
2023-01-31T07:08:41.830Z,1.88
2023-01-31T07:10:05.627Z,1.55
2023-01-31T07:11:29.062Z,2.03
2023-01-31T07:12:53.938Z,1.75
2023-01-31T07:14:17.547Z,2.22
2023-01-31T07:15:40.963Z,2.67
2023-01-31T07:17:04.421Z,1.60
2023-01-31T07:18:27.964Z,2.42
2023-01-31T07:19:51.555Z,2.28
2023-01-31T07:21:15.026Z,1.70
2023-01-31T07:22:38.583Z,1.73
2023-01-31T07:24:04.026Z,1.25
2023-01-31T07:25:28.274Z,1.70
2023-01-31T07:26:54.366Z,2.78
2023-01-31T07:28:19.265Z,2.08
2023-01-31T07:29:43.805Z,1.58
2023-01-31T07:31:08.303Z,1.55
2023-01-31T07:32:32.313Z,1.65
2023-01-31T07:33:55.779Z,1.75
2023-01-31T07:35:19.451Z,1.55
2023-01-31T07:36:43.083Z,1.73
2023-01-31T07:38:06.526Z,1.67
2023-01-31T07:39:30.287Z,2.00
2023-01-31T07:40:52.810Z,1.40
2023-01-31T07:42:16.224Z,1.95
2023-01-31T07:43:41.031Z,1.70
2023-01-31T07:45:20.967Z,1.73
2023-01-31T07:46:46.196Z,1.98
2023-01-31T07:48:09.988Z,2.10
2023-01-31T07:49:33.398Z,1.38
2023-01-31T07:51:00.940Z,1.70
2023-01-31T07:52:24.337Z,2.30
2023-01-31T07:53:47.865Z,1.65
2023-01-31T07:55:11.564Z,2.10
2023-01-31T07:56:35.041Z,1.80
2023-01-31T07:57:57.627Z,2.05
2023-01-31T07:59:22.382Z,1.23
2023-01-31T08:01:03.657Z,2.13
2023-01-31T08:02:44.358Z,1.65
2023-01-31T08:04:20.482Z,2.40
2023-01-31T08:05:47.788Z,1.60
2023-01-31T08:07:11.320Z,1.35
2023-01-31T08:08:37.294Z,1.65
2023-01-31T08:10:00.900Z,1.92
2023-01-31T08:11:24.321Z,1.45
2023-01-31T08:12:50.085Z,1.55
2023-01-31T08:14:13.714Z,1.92
2023-01-31T08:15:39.402Z,1.30
2023-01-31T08:17:02.854Z,1.63
2023-01-31T08:18:26.330Z,1.55
2023-01-31T08:19:49.805Z,1.75
2023-01-31T08:21:14.996Z,2.20
2023-01-31T08:22:38.522Z,1.40
2023-01-31T08:24:01.988Z,1.70
2023-01-31T08:25:26.786Z,1.55
2023-01-31T08:26:50.497Z,1.60
2023-01-31T08:28:14.094Z,1.38
2023-01-31T08:29:38.002Z,0.93
2023-01-31T08:31:08.979Z,2.00
2023-01-31T08:32:33.144Z,1.48
2023-01-31T08:33:57.684Z,1.50
2023-01-31T08:35:21.437Z,1.17
2023-01-31T08:36:45.890Z,1.65
2023-01-31T08:38:16.340Z,2.47
2023-01-31T08:39:41.071Z,1.40
2023-01-31T08:41:03.616Z,1.92
2023-01-31T08:42:27.107Z,2.22
2023-01-31T08:43:57.143Z,1.35
2023-01-31T08:45:22.259Z,2.20
2023-01-31T08:46:47.344Z,2.35
2023-01-31T08:48:10.885Z,1.88
2023-01-31T08:49:36.795Z,1.70
2023-01-31T08:51:03.008Z,2.40
2023-01-31T08:52:26.386Z,2.10
2023-01-31T08:53:50.166Z,1.83
2023-01-31T08:55:13.967Z,1.70
2023-01-31T08:56:37.465Z,2.20
2023-01-31T08:58:01.965Z,2.40
2023-01-31T08:59:25.421Z,2.17
2023-01-31T09:00:48.835Z,1.98
2023-01-31T09:02:13.683Z,1.88
2023-01-31T09:03:37.132Z,2.00
2023-01-31T09:05:02.865Z,1.67
2023-01-31T09:06:28.132Z,1.73
2023-01-31T09:07:51.577Z,2.33
2023-01-31T09:09:15.008Z,2.05
2023-01-31T09:10:38.752Z,2.05
2023-01-31T09:12:02.268Z,2.45
2023-01-31T09:13:25.988Z,2.47
2023-01-31T09:14:50.347Z,2.35
2023-01-31T09:16:14.934Z,2.40
2023-01-31T09:17:40.127Z,2.20
2023-01-31T09:19:04.326Z,2.88
2023-01-31T09:20:27.813Z,2.20
2023-01-31T09:21:51.227Z,2.05
2023-01-31T09:23:14.835Z,2.75
2023-01-31T09:24:38.549Z,2.28
2023-01-31T09:26:05.236Z,2.22
2023-01-31T09:27:28.845Z,2.42
2023-01-31T09:28:52.781Z,1.80
2023-01-31T09:30:16.917Z,2.60
2023-01-31T09:31:40.381Z,2.00
2023-01-31T09:33:05.260Z,1.90
2023-01-31T09:34:28.725Z,2.40
2023-01-31T09:36:04.516Z,2.30
2023-01-31T09:37:29.785Z,2.55
2023-01-31T09:38:56.580Z,2.38
2023-01-31T09:40:26.518Z,2.10
2023-01-31T09:41:53.474Z,2.05
2023-01-31T09:43:18.500Z,1.90
2023-01-31T09:44:43.875Z,2.10
2023-01-31T09:46:09.271Z,2.40
2023-01-31T09:47:37.666Z,2.17
2023-01-31T09:49:06.096Z,2.70
2023-01-31T09:50:34.721Z,2.83
2023-01-31T09:52:01.402Z,2.38
2023-01-31T09:53:27.236Z,2.90
2023-01-31T09:54:51.172Z,2.28
2023-01-31T09:56:24.593Z,2.88
2023-01-31T09:57:53.523Z,1.73
2023-01-31T09:59:20.987Z,2.38
2023-01-31T10:00:48.937Z,3.00
2023-01-31T10:02:24.246Z,2.13
2023-01-31T10:04:08.684Z,1.70
2023-01-31T10:05:38.770Z,2.28
2023-01-31T10:07:04.911Z,1.98
2023-01-31T10:08:41.214Z,2.47
2023-01-31T10:10:10.142Z,1.73
2023-01-31T10:11:38.252Z,2.45
2023-01-31T10:13:04.685Z,2.03
2023-01-31T10:14:33.674Z,2.35
2023-01-31T10:16:00.346Z,2.33
2023-01-31T10:17:26.951Z,2.42
2023-01-31T10:18:52.630Z,1.65
2023-01-31T10:20:22.651Z,2.10
2023-01-31T10:21:50.296Z,1.98
2023-01-31T10:23:17.458Z,1.92
2023-01-31T10:24:44.058Z,1.98
2023-01-31T10:26:11.265Z,1.60
2023-01-31T10:27:41.933Z,1.90
2023-01-31T10:29:11.171Z,1.63
2023-01-31T10:30:54.994Z,1.58
2023-01-31T10:32:22.598Z,2.13
2023-01-31T10:33:50.713Z,1.67
2023-01-31T10:35:17.339Z,1.90
2023-01-31T10:36:45.551Z,1.98
2023-01-31T10:38:15.438Z,2.15
2023-01-31T10:39:44.139Z,2.83
2023-01-31T10:41:14.793Z,2.50
2023-01-31T10:42:39.720Z,2.50
2023-01-31T10:44:07.503Z,2.28
2023-01-31T10:45:33.957Z,1.42
2023-01-31T10:46:59.637Z,2.60
2023-01-31T10:48:26.234Z,2.08
2023-01-31T10:49:51.348Z,1.85
2023-01-31T10:51:26.683Z,2.60
2023-01-31T10:53:12.851Z,2.03
2023-01-31T10:54:48.913Z,2.58
2023-01-31T10:56:16.812Z,2.40
2023-01-31T10:57:40.754Z,1.85
2023-01-31T10:59:08.378Z,1.88
2023-01-31T11:00:33.878Z,2.25
2023-01-31T11:01:58.460Z,1.88
2023-01-31T11:03:22.080Z,2.90
2023-01-31T11:04:45.575Z,2.35
2023-01-31T11:06:12.119Z,1.92
2023-01-31T11:07:36.425Z,2.28
2023-01-31T11:09:02.394Z,2.75
2023-01-31T11:10:27.940Z,1.92
2023-01-31T11:11:56.890Z,2.03
2023-01-31T11:13:21.385Z,2.75
2023-01-31T11:14:44.905Z,2.25
2023-01-31T11:16:10.790Z,2.40
2023-01-31T11:17:35.419Z,2.42
2023-01-31T11:18:59.455Z,3.75
2023-01-31T11:20:25.578Z,2.70
2023-01-31T11:21:51.231Z,2.63
2023-01-31T11:23:16.255Z,2.75
2023-01-31T11:24:42.398Z,2.85
2023-01-31T11:26:06.739Z,3.42
2023-01-31T11:27:34.763Z,3.95
2023-01-31T11:28:58.223Z,2.97
2023-01-31T11:30:28.514Z,2.70
2023-01-31T11:31:52.143Z,2.45
2023-01-31T11:33:39.983Z,2.75
2023-01-31T11:35:05.713Z,2.72
2023-01-31T11:36:33.818Z,2.17
2023-01-31T11:37:59.247Z,3.10
2023-01-31T11:39:28.922Z,2.75
2023-01-31T11:40:53.803Z,2.45
2023-01-31T11:42:18.291Z,2.65
2023-01-31T11:43:42.539Z,2.75
2023-01-31T11:45:17.559Z,2.83
2023-01-31T11:46:48.334Z,2.40
2023-01-31T11:48:18.784Z,2.45
2023-01-31T11:49:43.826Z,2.38
2023-01-31T11:51:10.690Z,3.92
2023-01-31T11:52:35.710Z,2.35
2023-01-31T11:54:02.021Z,2.08
2023-01-31T11:55:25.977Z,3.05
2023-01-31T11:56:51.239Z,2.78
2023-01-31T11:58:20.846Z,2.67
2023-01-31T11:59:44.355Z,3.13
2023-01-31T12:01:10.061Z,2.47
2023-01-31T12:02:37.949Z,3.50
2023-01-31T12:04:04.623Z,3.33
2023-01-31T12:05:37.692Z,4.35
2023-01-31T12:07:04.886Z,2.85
2023-01-31T12:08:31.619Z,3.55
2023-01-31T12:09:55.072Z,3.63
2023-01-31T12:11:30.004Z,3.20
2023-01-31T12:12:58.881Z,2.88
2023-01-31T12:14:37.188Z,3.67
2023-01-31T12:16:02.231Z,3.33
2023-01-31T12:17:25.677Z,3.13
2023-01-31T12:19:07.093Z,4.07
2023-01-31T12:20:38.349Z,2.97
2023-01-31T12:22:04.956Z,2.65
2023-01-31T12:23:35.733Z,3.08
2023-01-31T12:25:05.753Z,2.97
2023-01-31T12:26:36.084Z,2.22
2023-01-31T12:28:10.594Z,2.70
2023-01-31T12:29:56.220Z,3.42
2023-01-31T12:31:48.989Z,2.15
2023-01-31T12:33:35.895Z,3.08
2023-01-31T12:35:14.258Z,2.90
2023-01-31T12:36:48.764Z,2.70
2023-01-31T12:38:23.926Z,2.78
2023-01-31T12:39:56.453Z,2.17
2023-01-31T12:41:26.839Z,2.53
2023-01-31T12:42:57.289Z,3.17
2023-01-31T12:44:43.952Z,3.97
2023-01-31T12:46:12.171Z,3.45
2023-01-31T12:48:00.522Z,3.13
2023-01-31T12:49:42.978Z,2.35
2023-01-31T12:51:15.892Z,2.63
2023-01-31T12:52:46.036Z,2.75
2023-01-31T12:54:33.073Z,2.97
2023-01-31T12:56:07.523Z,2.40
2023-01-31T12:57:35.233Z,3.17
2023-01-31T12:59:15.545Z,5.18
2023-01-31T13:00:45.665Z,2.85
2023-01-31T13:02:34.820Z,3.10
2023-01-31T13:04:12.653Z,3.55
2023-01-31T13:05:40.405Z,3.35
2023-01-31T13:07:07.069Z,2.45
2023-01-31T13:08:32.652Z,3.70
2023-01-31T13:09:58.659Z,3.30
2023-01-31T13:11:26.052Z,2.75
2023-01-31T13:12:49.809Z,2.63
2023-01-31T13:14:16.645Z,3.38
2023-01-31T13:15:46.174Z,2.97
2023-01-31T13:17:13.633Z,4.10
2023-01-31T13:18:37.824Z,2.90
2023-01-31T13:20:05.429Z,4.20
2023-01-31T13:21:31.780Z,3.05
2023-01-31T13:22:58.777Z,3.33
2023-01-31T13:24:25.053Z,3.70
2023-01-31T13:25:54.847Z,3.13
2023-01-31T13:27:21.581Z,2.50
2023-01-31T13:28:47.765Z,3.63
2023-01-31T13:30:21.579Z,2.20
2023-01-31T13:31:49.779Z,2.95
2023-01-31T13:33:24.879Z,3.17
2023-01-31T13:34:52.613Z,3.35
2023-01-31T13:36:23.231Z,3.45
2023-01-31T13:37:48.480Z,3.63
2023-01-31T13:39:17.007Z,3.13
2023-01-31T13:40:45.896Z,2.25
2023-01-31T13:42:10.382Z,3.08
2023-01-31T13:43:33.780Z,3.13
2023-01-31T13:44:57.511Z,3.20
2023-01-31T13:46:24.527Z,1.95
2023-01-31T13:47:51.795Z,2.58
2023-01-31T13:49:21.682Z,2.30
2023-01-31T13:50:47.762Z,2.38
2023-01-31T13:52:14.291Z,2.78
2023-01-31T13:53:39.300Z,2.95
2023-01-31T13:55:04.905Z,1.90
2023-01-31T13:56:30.729Z,2.50
2023-01-31T13:58:00.294Z,3.08
2023-01-31T13:59:26.173Z,2.97
2023-01-31T14:00:51.847Z,2.45
2023-01-31T14:02:20.307Z,2.08
2023-01-31T14:04:25.194Z,1.95
2023-01-31T14:05:55.152Z,2.40
2023-01-31T14:07:21.181Z,1.83
2023-01-31T14:09:00.146Z,2.90
2023-01-31T14:10:30.012Z,2.42
2023-01-31T14:11:53.660Z,2.35
2023-01-31T14:13:40.360Z,2.33
2023-01-31T14:15:12.283Z,2.08
2023-01-31T14:16:42.679Z,2.35
2023-01-31T14:18:06.338Z,2.10
2023-01-31T14:20:02.597Z,2.45
2023-01-31T14:21:53.269Z,2.75
2023-01-31T14:23:33.641Z,2.58
2023-01-31T14:25:00.092Z,1.77
2023-01-31T14:26:51.351Z,1.35
2023-01-31T14:28:16.256Z,1.95
2023-01-31T14:29:44.908Z,2.40
2023-01-31T14:31:14.770Z,2.75
2023-01-31T14:32:40.813Z,1.50
2023-01-31T14:34:07.623Z,1.92
2023-01-31T14:35:49.613Z,2.78
2023-01-31T14:37:20.897Z,2.22
2023-01-31T14:39:12.191Z,1.70
2023-01-31T14:40:37.649Z,1.50
2023-01-31T14:42:35.236Z,1.58
2023-01-31T14:44:09.583Z,1.63
2023-01-31T14:45:58.021Z,1.88
2023-01-31T14:47:31.605Z,1.70
2023-01-31T14:49:14.184Z,1.58
2023-01-31T14:50:46.863Z,1.77
2023-01-31T14:52:30.868Z,2.10
2023-01-31T14:54:09.624Z,1.90
2023-01-31T14:55:46.046Z,1.48
2023-01-31T14:57:16.188Z,2.08
2023-01-31T14:58:45.308Z,1.60
2023-01-31T15:00:20.151Z,1.75
2023-01-31T15:01:43.694Z,1.70
2023-01-31T15:03:09.642Z,1.35
2023-01-31T15:04:33.237Z,2.00
2023-01-31T15:06:06.953Z,1.80
2023-01-31T15:07:32.034Z,1.58
2023-01-31T15:09:21.168Z,1.63
2023-01-31T15:11:03.146Z,1.83
2023-01-31T15:12:55.245Z,2.05
2023-01-31T15:14:35.490Z,2.08
2023-01-31T15:15:59.946Z,1.42
2023-01-31T15:17:36.510Z,2.40
2023-01-31T15:19:07.576Z,1.80
2023-01-31T15:20:39.072Z,1.85
2023-01-31T15:22:09.310Z,2.30
2023-01-31T15:23:35.501Z,2.22
2023-01-31T15:25:20.241Z,1.85
2023-01-31T15:26:44.028Z,2.15
2023-01-31T15:28:10.586Z,1.80
2023-01-31T15:29:38.091Z,2.08
2023-01-31T15:31:04.408Z,2.22
2023-01-31T15:32:33.498Z,2.08
2023-01-31T15:34:01.821Z,1.92
2023-01-31T15:35:29.206Z,1.92
2023-01-31T15:37:00.764Z,2.08
2023-01-31T15:38:29.045Z,2.13
2023-01-31T15:39:57.167Z,2.67
2023-01-31T15:41:22.811Z,2.20
2023-01-31T15:42:46.552Z,3.72
2023-01-31T15:44:16.985Z,2.40
2023-01-31T15:45:40.773Z,2.15
2023-01-31T15:47:05.418Z,1.95
2023-01-31T15:48:29.038Z,2.03
2023-01-31T15:49:52.589Z,2.55
2023-01-31T15:51:16.573Z,2.40
2023-01-31T15:52:40.019Z,2.03
2023-01-31T15:54:06.357Z,1.98
2023-01-31T15:55:33.133Z,2.15
2023-01-31T15:56:56.697Z,2.70
2023-01-31T15:58:21.807Z,2.47
2023-01-31T15:59:47.979Z,2.35
2023-01-31T16:01:18.564Z,1.98
2023-01-31T16:02:42.658Z,2.00
2023-01-31T16:04:06.486Z,2.30
2023-01-31T16:05:32.416Z,1.80
2023-01-31T16:06:56.620Z,2.30
2023-01-31T16:08:23.063Z,2.35
2023-01-31T16:09:46.850Z,2.33
2023-01-31T16:11:11.948Z,2.70
2023-01-31T16:12:38.713Z,2.47
2023-01-31T16:14:04.113Z,2.15
2023-01-31T16:15:29.446Z,2.35
2023-01-31T16:16:54.701Z,2.50
2023-01-31T16:18:18.813Z,2.60
2023-01-31T16:19:42.636Z,2.10
2023-01-31T16:21:16.577Z,2.25
2023-01-31T16:22:40.465Z,2.55
2023-01-31T16:24:09.910Z,2.60
2023-01-31T16:25:35.994Z,2.47
2023-01-31T16:27:03.568Z,2.05
2023-01-31T16:28:27.472Z,2.30
2023-01-31T16:29:58.922Z,2.60
2023-01-31T16:31:23.908Z,2.65
2023-01-31T16:32:51.434Z,4.30
2023-01-31T16:34:25.120Z,2.72
2023-01-31T16:35:48.877Z,2.95
2023-01-31T16:37:13.301Z,2.90
2023-01-31T16:38:37.064Z,3.22
2023-01-31T16:40:03.263Z,3.00
2023-01-31T16:41:44.488Z,2.67
2023-01-31T16:43:27.422Z,2.83
2023-01-31T16:44:51.978Z,3.00
2023-01-31T16:46:23.066Z,2.33
2023-01-31T16:47:52.382Z,2.95
2023-01-31T16:49:21.739Z,3.08
2023-01-31T16:50:45.288Z,2.20
2023-01-31T16:52:18.416Z,3.33
2023-01-31T16:53:42.007Z,2.67
2023-01-31T16:55:18.464Z,2.50
2023-01-31T16:56:43.090Z,2.72
2023-01-31T16:58:07.026Z,3.28
2023-01-31T16:59:48.631Z,2.15
2023-01-31T17:01:13.854Z,3.33
2023-01-31T17:02:42.118Z,2.88
2023-01-31T17:04:16.030Z,3.00
2023-01-31T17:05:41.742Z,3.60
2023-01-31T17:07:06.547Z,3.20
2023-01-31T17:08:30.073Z,3.47
2023-01-31T17:09:57.034Z,2.92
2023-01-31T17:11:39.644Z,3.00
2023-01-31T17:13:09.105Z,3.05
2023-01-31T17:14:34.381Z,4.30
2023-01-31T17:16:02.284Z,4.00
2023-01-31T17:17:27.473Z,3.25
2023-01-31T17:18:50.461Z,3.53
2023-01-31T17:20:15.896Z,4.68
2023-01-31T17:21:41.684Z,3.00
2023-01-31T17:23:06.338Z,3.35
2023-01-31T17:24:29.806Z,3.83
2023-01-31T17:25:53.411Z,3.72
2023-01-31T17:27:17.508Z,3.88
2023-01-31T17:28:42.727Z,4.35
2023-01-31T17:30:09.333Z,3.30
2023-01-31T17:31:34.708Z,3.15
2023-01-31T17:32:58.272Z,3.22
2023-01-31T17:34:21.710Z,3.53
2023-01-31T17:35:47.754Z,3.20
2023-01-31T17:37:12.000Z,3.33
2023-01-31T17:38:35.506Z,3.30
2023-01-31T17:39:58.942Z,3.50
2023-01-31T17:41:24.692Z,3.25
2023-01-31T17:42:48.309Z,4.00
2023-01-31T17:44:15.085Z,3.22
2023-01-31T17:45:40.496Z,3.83
2023-01-31T17:47:05.455Z,3.90
2023-01-31T17:48:28.927Z,3.72
2023-01-31T17:49:52.544Z,4.00
2023-01-31T17:51:16.422Z,4.05
2023-01-31T17:52:39.937Z,4.45
2023-01-31T17:54:03.359Z,3.63
2023-01-31T17:55:26.895Z,3.35
2023-01-31T17:56:52.168Z,4.20
2023-01-31T17:58:18.081Z,3.42
2023-01-31T17:59:41.558Z,3.30
2023-01-31T18:01:06.342Z,3.72
2023-01-31T18:02:31.117Z,4.15
2023-01-31T18:03:54.554Z,3.58
2023-01-31T18:05:33.462Z,4.10
2023-01-31T18:07:01.672Z,4.05
2023-01-31T18:08:25.184Z,3.80
2023-01-31T18:09:48.642Z,3.80
2023-01-31T18:11:15.012Z,3.97
2023-01-31T18:12:38.638Z,3.60
2023-01-31T18:14:03.992Z,3.72
2023-01-31T18:15:27.563Z,3.45
2023-01-31T18:16:54.014Z,3.70
2023-01-31T18:18:18.952Z,3.22
2023-01-31T18:19:42.382Z,3.63
2023-01-31T18:21:06.499Z,3.67
2023-01-31T18:22:30.033Z,7.35
2023-01-31T18:23:54.348Z,3.05
2023-01-31T18:25:18.328Z,3.13
2023-01-31T18:26:43.866Z,3.15
2023-01-31T18:28:08.024Z,3.50
2023-01-31T18:29:31.639Z,2.90
2023-01-31T18:30:55.339Z,3.13
2023-01-31T18:32:20.231Z,3.10
2023-01-31T18:33:46.837Z,3.28
2023-01-31T18:35:10.781Z,3.10
2023-01-31T18:36:34.236Z,3.17
2023-01-31T18:37:57.760Z,3.83
2023-01-31T18:39:21.403Z,3.17
2023-01-31T18:40:44.929Z,3.17
2023-01-31T18:42:11.388Z,3.10
2023-01-31T18:43:34.821Z,2.90
2023-01-31T18:44:58.281Z,3.50
2023-01-31T18:46:22.272Z,2.88
2023-01-31T18:47:45.698Z,3.03
2023-01-31T18:49:10.634Z,3.33
2023-01-31T18:50:34.189Z,3.03
2023-01-31T18:51:57.623Z,2.67
2023-01-31T18:53:21.082Z,3.40
2023-01-31T18:54:45.501Z,3.42
2023-01-31T18:56:12.641Z,3.40
2023-01-31T18:57:36.317Z,3.25
2023-01-31T18:59:00.253Z,3.33
2023-01-31T19:00:24.312Z,3.13
2023-01-31T19:01:47.766Z,3.53
2023-01-31T19:03:12.139Z,3.85
2023-01-31T19:04:37.219Z,2.80
2023-01-31T19:06:05.718Z,3.15
2023-01-31T19:07:29.287Z,2.85
2023-01-31T19:08:54.278Z,4.10
2023-01-31T19:10:18.116Z,3.90
2023-01-31T19:11:42.567Z,3.15
2023-01-31T19:13:06.043Z,3.90
2023-01-31T19:14:30.147Z,2.42
2023-01-31T19:15:53.598Z,3.50
2023-01-31T19:17:17.256Z,3.05
2023-01-31T19:18:47.881Z,3.85
2023-01-31T19:20:13.967Z,2.35